Forside
METAR-TAF:

METAR-TAF

Lufthavne :

DeKalb Taylor Municipal Airport

DeKalb, Illinois, USA

Breddekreds: 41-55-55N, længdekreds: 088-42-30W, højde: 279 m

Aktuelle vejr

Denne rapport blev lavet for 23 minutter siden, kl. 18:55 UTC
Vind 11 kt fra sydsydvest
Temperatur 6°C
Fugtighed 52%
Tryk 1021 hPa
Sigt: 16.1 km
skyfri

METAR: KDKB 221855Z AUTO 21011KT 10SM CLR 06/M03 A3016 RMK AO2 T00621032

Tid: 13:18 (19:18 UTC)


TAF: fraværende

Vejrobservationer og prognoser fra mere end 4000 lufthavne (METAR og TAF).

De gule og røde prikker repræsenterer de meteorologiske stationer.

Flyt musen over at se navnet på stationen.

Så klik over at se vejr observationer og prognoser.

At skifte det kort: Klik på de grønne knapper med et sort kors for at zoome ind; på den grønne knap med en bindestreg for at zoome ud; eller på de grønne pile for tilstødende kort.


METAR-TAF: